createdAt,value
2017-08-22T00:02:29.793Z,59.10
2017-08-22T00:04:57.502Z,59.30
2017-08-22T00:07:25.170Z,59.40
2017-08-22T00:09:52.817Z,59.40
2017-08-22T00:12:20.513Z,59.40
2017-08-22T00:14:48.185Z,59.40
2017-08-22T00:17:15.869Z,59.60
2017-08-22T00:19:43.508Z,59.60
2017-08-22T00:22:11.183Z,59.50
2017-08-22T00:24:38.827Z,59.50
2017-08-22T00:27:06.480Z,59.70
2017-08-22T00:29:34.156Z,59.50
2017-08-22T00:32:01.805Z,59.50
2017-08-22T00:34:29.507Z,59.50
2017-08-22T00:36:57.418Z,59.70
2017-08-22T00:39:25.071Z,59.70
2017-08-22T00:41:52.757Z,59.70
2017-08-22T00:44:20.440Z,59.80
2017-08-22T00:46:48.147Z,59.80
2017-08-22T00:49:15.801Z,59.90
2017-08-22T00:51:43.466Z,60.10
2017-08-22T00:54:11.141Z,60.00
2017-08-22T00:56:38.802Z,60.00
2017-08-22T00:59:06.485Z,60.10
2017-08-22T01:01:34.132Z,60.10
2017-08-22T01:04:01.801Z,60.00
2017-08-22T01:06:29.467Z,60.40
2017-08-22T01:08:57.156Z,60.00
2017-08-22T01:11:24.850Z,60.20
2017-08-22T01:13:52.535Z,60.00
2017-08-22T01:16:20.166Z,60.20
2017-08-22T01:18:47.847Z,60.00
2017-08-22T01:21:15.511Z,60.20
2017-08-22T01:23:43.200Z,60.10
2017-08-22T01:26:10.883Z,60.20
2017-08-22T01:28:38.591Z,60.20
2017-08-22T01:31:06.231Z,60.20
2017-08-22T01:33:33.885Z,61.10
2017-08-22T01:36:01.608Z,60.40
2017-08-22T01:38:29.273Z,60.60
2017-08-22T01:40:56.977Z,60.50
2017-08-22T01:43:24.621Z,60.40
2017-08-22T01:45:52.286Z,60.50
2017-08-22T01:48:19.963Z,60.70
2017-08-22T01:50:47.628Z,60.50
2017-08-22T01:53:15.333Z,60.50
2017-08-22T01:55:42.977Z,60.70
2017-08-22T01:58:10.665Z,60.60
2017-08-22T02:00:38.314Z,60.50
2017-08-22T02:03:05.965Z,60.50
2017-08-22T02:05:33.672Z,60.60
2017-08-22T02:08:01.343Z,60.60
2017-08-22T02:10:29.059Z,60.50
2017-08-22T02:12:56.712Z,60.30
2017-08-22T02:15:24.441Z,60.50
2017-08-22T02:17:52.091Z,60.80
2017-08-22T02:20:19.747Z,60.40
2017-08-22T02:22:47.439Z,60.60
2017-08-22T02:25:15.083Z,60.30
2017-08-22T02:27:42.780Z,60.40
2017-08-22T02:30:10.444Z,60.60
2017-08-22T02:32:38.101Z,60.60
2017-08-22T02:35:05.783Z,60.50
2017-08-22T02:37:33.521Z,60.70
2017-08-22T02:40:01.193Z,60.40
2017-08-22T02:42:28.871Z,60.80
2017-08-22T02:44:56.531Z,60.80
2017-08-22T02:47:24.236Z,60.70
2017-08-22T02:49:51.887Z,60.80
2017-08-22T02:52:19.674Z,60.90
2017-08-22T02:54:47.363Z,60.70
2017-08-22T02:57:15.043Z,60.80
2017-08-22T02:59:42.729Z,61.00
2017-08-22T03:02:10.435Z,61.00
2017-08-22T03:04:38.076Z,60.80
2017-08-22T03:07:05.739Z,60.60
2017-08-22T03:09:33.422Z,60.70
2017-08-22T03:12:01.071Z,60.80
2017-08-22T03:14:28.764Z,61.00
2017-08-22T03:16:56.430Z,60.80
2017-08-22T03:19:24.102Z,60.90
2017-08-22T03:21:51.783Z,60.80
2017-08-22T03:24:19.430Z,61.00
2017-08-22T03:26:47.099Z,61.80
2017-08-22T03:29:14.766Z,61.00
2017-08-22T03:31:42.458Z,61.10
2017-08-22T03:34:10.091Z,61.10
2017-08-22T03:36:37.789Z,61.20
2017-08-22T03:39:05.447Z,61.30
2017-08-22T03:41:33.128Z,61.20
2017-08-22T03:44:00.777Z,61.40
2017-08-22T03:46:28.465Z,61.50
2017-08-22T03:48:56.113Z,61.60
2017-08-22T03:51:23.751Z,61.60
2017-08-22T03:53:51.440Z,61.70
2017-08-22T03:56:19.093Z,61.70
2017-08-22T03:58:46.785Z,61.80
2017-08-22T04:01:14.441Z,61.60
2017-08-22T04:03:42.100Z,61.60
2017-08-22T04:06:09.824Z,61.60
2017-08-22T04:08:37.489Z,61.90
2017-08-22T04:11:05.162Z,62.00
2017-08-22T04:13:32.861Z,62.20
2017-08-22T04:16:00.544Z,62.30
2017-08-22T04:18:28.230Z,62.30
2017-08-22T04:20:56.207Z,62.40
2017-08-22T04:23:23.893Z,62.50
2017-08-22T04:25:51.570Z,62.40
2017-08-22T04:28:19.248Z,62.60
2017-08-22T04:30:46.914Z,62.90
2017-08-22T04:33:14.601Z,62.90
2017-08-22T04:35:42.282Z,62.90
2017-08-22T04:38:09.962Z,62.80
2017-08-22T04:40:37.614Z,63.00
2017-08-22T04:43:05.252Z,63.00
2017-08-22T04:45:32.950Z,62.90
2017-08-22T04:48:00.618Z,63.00
2017-08-22T04:50:28.319Z,63.20
2017-08-22T04:52:55.980Z,63.20
2017-08-22T04:55:23.615Z,63.20
2017-08-22T04:57:51.292Z,63.40
2017-08-22T05:00:18.920Z,63.60
2017-08-22T05:02:46.600Z,63.80
2017-08-22T05:05:15.067Z,63.60
2017-08-22T05:07:42.740Z,63.60
2017-08-22T05:10:10.455Z,63.90
2017-08-22T05:12:38.094Z,64.80
2017-08-22T05:15:05.960Z,64.00
2017-08-22T05:17:33.614Z,64.10
2017-08-22T05:20:01.302Z,64.10
2017-08-22T05:22:28.985Z,64.30
2017-08-22T05:24:56.627Z,64.10
2017-08-22T05:27:24.321Z,64.10
2017-08-22T05:29:51.975Z,64.10
2017-08-22T05:32:19.637Z,64.20
2017-08-22T05:34:47.871Z,64.20
2017-08-22T05:37:15.608Z,64.00
2017-08-22T05:39:43.276Z,64.40
2017-08-22T05:42:10.936Z,64.40
2017-08-22T05:44:38.616Z,64.30
2017-08-22T05:47:06.269Z,64.40
2017-08-22T05:49:33.967Z,64.50
2017-08-22T05:52:01.625Z,65.10
2017-08-22T05:54:29.265Z,65.30
2017-08-22T05:56:57.069Z,64.90
2017-08-22T05:59:24.707Z,65.00
2017-08-22T06:01:52.403Z,65.10
2017-08-22T06:04:20.058Z,65.40
2017-08-22T06:06:47.758Z,65.70
2017-08-22T06:09:15.418Z,65.60
2017-08-22T06:11:43.062Z,65.50
2017-08-22T06:14:10.745Z,65.60
2017-08-22T06:16:38.414Z,65.50
2017-08-22T06:19:06.152Z,65.70
2017-08-22T06:21:33.808Z,65.80
2017-08-22T06:24:01.507Z,66.10
2017-08-22T06:26:29.170Z,66.90
2017-08-22T06:28:56.814Z,66.20
2017-08-22T06:31:24.497Z,66.40
2017-08-22T06:33:52.186Z,66.40
2017-08-22T06:36:19.907Z,66.40
2017-08-22T06:38:47.595Z,66.70
2017-08-22T06:41:15.256Z,66.60
2017-08-22T06:43:42.934Z,66.60
2017-08-22T06:46:10.598Z,66.70
2017-08-22T06:48:38.296Z,67.00
2017-08-22T06:51:06.138Z,66.80
2017-08-22T06:53:33.827Z,66.90
2017-08-22T06:56:01.510Z,67.00
2017-08-22T06:58:29.230Z,67.20
2017-08-22T07:00:56.915Z,67.30
2017-08-22T07:03:24.599Z,67.30
2017-08-22T07:05:52.286Z,67.40
2017-08-22T07:08:19.962Z,67.70
2017-08-22T07:10:47.635Z,67.60
2017-08-22T07:13:15.324Z,67.70
2017-08-22T07:15:43.003Z,67.70
2017-08-22T07:18:10.703Z,67.80
2017-08-22T07:20:38.465Z,67.90
2017-08-22T07:23:06.153Z,67.90
2017-08-22T07:25:33.805Z,68.00
2017-08-22T07:28:01.453Z,67.80
2017-08-22T07:30:29.165Z,68.00
2017-08-22T07:32:56.833Z,68.10
2017-08-22T07:35:24.497Z,68.40
2017-08-22T07:37:52.180Z,68.30
2017-08-22T07:40:19.990Z,68.30
2017-08-22T07:42:47.619Z,68.80
2017-08-22T07:45:15.351Z,68.00
2017-08-22T07:47:43.079Z,68.10
2017-08-22T07:50:10.842Z,68.30
2017-08-22T07:52:38.519Z,68.10
2017-08-22T07:55:06.191Z,68.00
2017-08-22T07:57:33.929Z,68.00
2017-08-22T08:00:01.615Z,68.20
2017-08-22T08:02:29.290Z,68.10
2017-08-22T08:04:57.039Z,68.00
2017-08-22T08:07:24.922Z,68.00
2017-08-22T08:09:52.610Z,67.80
2017-08-22T08:12:20.271Z,68.00
2017-08-22T08:14:47.953Z,67.80
2017-08-22T08:17:15.842Z,67.60
2017-08-22T08:19:43.604Z,67.40
2017-08-22T08:22:11.299Z,67.20
2017-08-22T08:24:39.252Z,67.00
2017-08-22T08:27:06.932Z,67.00
2017-08-22T08:29:34.871Z,67.10
2017-08-22T08:32:02.734Z,67.50
2017-08-22T08:34:30.379Z,67.20
2017-08-22T08:37:01.128Z,66.50
2017-08-22T08:39:29.017Z,66.60
2017-08-22T08:41:56.864Z,66.70
2017-08-22T08:44:24.652Z,65.80
2017-08-22T08:46:52.494Z,65.40
2017-08-22T08:49:20.320Z,64.50
2017-08-22T08:51:48.093Z,64.70
2017-08-22T08:54:15.920Z,64.60
2017-08-22T08:56:43.873Z,64.10
2017-08-22T08:59:11.840Z,63.50
2017-08-22T09:01:39.704Z,63.60
2017-08-22T09:04:07.533Z,63.30
2017-08-22T09:06:35.418Z,63.00
2017-08-22T09:09:03.360Z,61.30
2017-08-22T09:11:31.069Z,61.20
2017-08-22T09:13:58.723Z,60.90
2017-08-22T09:16:26.410Z,60.80
2017-08-22T09:18:54.079Z,60.40
2017-08-22T09:21:21.749Z,60.50
2017-08-22T09:23:49.435Z,60.30
2017-08-22T09:26:17.128Z,59.50
2017-08-22T09:28:44.793Z,59.80
2017-08-22T09:31:12.532Z,59.50
2017-08-22T09:33:40.172Z,59.20
2017-08-22T09:36:07.812Z,58.60
2017-08-22T09:38:35.505Z,58.30
2017-08-22T09:41:03.171Z,59.10
2017-08-22T09:43:30.848Z,58.40
2017-08-22T09:45:58.528Z,58.40
2017-08-22T09:48:26.301Z,58.80
2017-08-22T09:50:53.931Z,59.40
2017-08-22T09:53:21.649Z,58.70
2017-08-22T09:55:49.315Z,58.50
2017-08-22T09:58:16.976Z,58.80
2017-08-22T10:00:44.657Z,58.60
2017-08-22T10:03:12.304Z,58.40
2017-08-22T10:05:39.981Z,58.40
2017-08-22T10:08:07.661Z,58.20
2017-08-22T10:10:35.331Z,57.90
2017-08-22T10:13:02.990Z,57.80
2017-08-22T10:15:30.670Z,57.70
2017-08-22T10:17:58.307Z,56.90
2017-08-22T10:20:25.993Z,56.90
2017-08-22T10:22:53.685Z,56.80
2017-08-22T10:25:21.347Z,56.40
2017-08-22T10:27:49.042Z,56.60
2017-08-22T10:30:16.707Z,56.80
2017-08-22T10:32:44.399Z,56.70
2017-08-22T10:35:12.042Z,56.90
2017-08-22T10:37:39.754Z,56.90
2017-08-22T10:40:07.405Z,56.70
2017-08-22T10:42:35.051Z,56.80
2017-08-22T10:45:02.843Z,56.90
2017-08-22T10:47:30.498Z,57.40
2017-08-22T10:49:58.176Z,57.30
2017-08-22T10:52:25.831Z,56.90
2017-08-22T10:54:53.538Z,57.00
2017-08-22T10:57:21.178Z,56.40
2017-08-22T10:59:48.868Z,56.90
2017-08-22T11:02:16.551Z,56.50
2017-08-22T11:04:44.289Z,56.40
2017-08-22T11:07:12.103Z,56.40
2017-08-22T11:09:39.873Z,56.90
2017-08-22T11:12:07.637Z,56.70
2017-08-22T11:14:35.364Z,56.70
2017-08-22T11:17:03.126Z,56.30
2017-08-22T11:19:30.832Z,56.60
2017-08-22T11:21:58.605Z,55.30
2017-08-22T11:24:26.471Z,55.80
2017-08-22T11:26:54.203Z,56.30
2017-08-22T11:29:21.986Z,56.50
2017-08-22T11:31:49.696Z,55.00
2017-08-22T11:34:17.379Z,54.40
2017-08-22T11:36:45.067Z,53.80
2017-08-22T11:39:12.730Z,53.50
2017-08-22T11:41:40.414Z,54.40
2017-08-22T11:44:08.099Z,54.60
2017-08-22T11:46:35.832Z,53.70
2017-08-22T11:49:03.487Z,53.60
2017-08-22T11:51:31.151Z,54.60
2017-08-22T11:53:58.838Z,53.90
2017-08-22T11:56:26.486Z,54.50
2017-08-22T11:58:54.174Z,54.20
2017-08-22T12:01:21.835Z,53.30
2017-08-22T12:03:49.533Z,53.50
2017-08-22T12:06:17.194Z,54.20
2017-08-22T12:11:18.739Z,53.30
2017-08-22T12:13:46.425Z,53.10
2017-08-22T12:16:14.097Z,53.70
2017-08-22T12:18:41.758Z,52.80
2017-08-22T12:21:09.488Z,52.40
2017-08-22T12:23:37.164Z,52.20
2017-08-22T12:26:04.842Z,52.70
2017-08-22T12:28:32.506Z,53.30
2017-08-22T12:31:00.185Z,52.50
2017-08-22T12:33:27.838Z,52.60
2017-08-22T12:35:55.512Z,51.20
2017-08-22T12:38:23.177Z,51.40
2017-08-22T12:40:50.836Z,51.20
2017-08-22T12:43:18.607Z,50.70
2017-08-22T12:45:46.283Z,51.60
2017-08-22T12:48:13.971Z,50.90
2017-08-22T12:50:41.618Z,51.50
2017-08-22T12:53:09.317Z,52.50
2017-08-22T12:55:37.037Z,51.90
2017-08-22T12:58:04.795Z,51.00
2017-08-22T13:00:32.440Z,50.30
2017-08-22T13:03:00.374Z,50.40
2017-08-22T13:05:28.061Z,49.40
2017-08-22T13:07:55.734Z,49.00
2017-08-22T13:10:23.425Z,49.90
2017-08-22T13:12:51.087Z,50.70
2017-08-22T13:15:18.788Z,50.60
2017-08-22T13:17:46.444Z,50.80
2017-08-22T13:20:14.227Z,51.60
2017-08-22T13:22:41.900Z,51.10
2017-08-22T13:25:09.599Z,50.00
2017-08-22T13:27:37.281Z,49.80
2017-08-22T13:30:04.932Z,50.50
2017-08-22T13:32:32.597Z,50.60
2017-08-22T13:35:00.398Z,50.80
2017-08-22T13:37:28.077Z,50.90
2017-08-22T13:39:55.826Z,51.10
2017-08-22T13:42:23.608Z,51.10
2017-08-22T13:44:51.518Z,51.20
2017-08-22T13:47:19.317Z,50.50
2017-08-22T13:49:47.001Z,50.40
2017-08-22T13:52:14.859Z,51.50
2017-08-22T13:54:42.650Z,50.80
2017-08-22T13:57:10.477Z,50.40
2017-08-22T13:59:38.243Z,50.60
2017-08-22T14:02:05.884Z,50.40
2017-08-22T14:04:33.664Z,49.60
2017-08-22T14:07:01.437Z,50.10
2017-08-22T14:09:29.202Z,50.40
2017-08-22T14:11:56.968Z,50.00
2017-08-22T14:14:24.730Z,49.20
2017-08-22T14:16:52.412Z,47.80
2017-08-22T14:19:20.157Z,49.20
2017-08-22T14:21:48.024Z,50.40
2017-08-22T14:24:15.782Z,49.40
2017-08-22T14:26:43.662Z,48.00
2017-08-22T14:29:11.416Z,47.30
2017-08-22T14:31:39.100Z,47.50
2017-08-22T14:34:06.860Z,47.00
2017-08-22T14:36:34.705Z,47.30
2017-08-22T14:39:02.468Z,49.20
2017-08-22T14:41:30.232Z,47.60
2017-08-22T14:43:58.000Z,48.40
2017-08-22T14:46:25.632Z,48.40
2017-08-22T14:48:53.421Z,48.40
2017-08-22T14:51:21.083Z,48.60
2017-08-22T14:53:48.759Z,48.30
2017-08-22T14:56:16.510Z,48.80
2017-08-22T14:58:44.318Z,48.70
2017-08-22T15:01:12.577Z,47.90
2017-08-22T15:03:40.341Z,46.70
2017-08-22T15:06:08.187Z,46.60
2017-08-22T15:08:35.881Z,48.00
2017-08-22T15:11:03.542Z,48.30
2017-08-22T15:13:31.268Z,48.80
2017-08-22T15:15:59.144Z,48.90
2017-08-22T15:18:26.789Z,48.10
2017-08-22T15:20:54.569Z,48.00
2017-08-22T15:23:22.223Z,48.40
2017-08-22T15:25:50.035Z,48.80
2017-08-22T15:28:17.854Z,49.30
2017-08-22T15:30:45.520Z,50.10
2017-08-22T15:33:13.387Z,49.20
2017-08-22T15:35:41.069Z,48.40
2017-08-22T15:38:08.811Z,48.70
2017-08-22T15:40:36.712Z,48.40
2017-08-22T15:43:04.394Z,48.00
2017-08-22T15:45:32.094Z,48.80
2017-08-22T15:47:59.771Z,49.10
2017-08-22T15:50:27.437Z,48.90
2017-08-22T15:52:55.136Z,48.80
2017-08-22T15:55:22.972Z,49.20
2017-08-22T15:57:50.621Z,48.90
2017-08-22T16:00:18.333Z,49.20
2017-08-22T16:02:46.024Z,49.10
2017-08-22T16:05:13.677Z,48.80
2017-08-22T16:07:41.373Z,49.20
2017-08-22T16:10:09.045Z,49.40
2017-08-22T16:12:36.737Z,49.30
2017-08-22T16:15:04.411Z,49.40
2017-08-22T16:17:32.079Z,49.20
2017-08-22T16:19:59.889Z,49.40
2017-08-22T16:22:27.586Z,49.40
2017-08-22T16:24:55.403Z,49.20
2017-08-22T16:27:23.077Z,49.60
2017-08-22T16:29:50.747Z,49.50
2017-08-22T16:32:18.416Z,49.20
2017-08-22T16:34:46.084Z,49.60
2017-08-22T16:37:13.916Z,49.70
2017-08-22T16:39:41.759Z,49.80
2017-08-22T16:42:09.608Z,49.80
2017-08-22T16:44:37.504Z,49.70
2017-08-22T16:47:05.724Z,49.70
2017-08-22T16:49:33.541Z,49.60
2017-08-22T16:52:01.444Z,49.50
2017-08-22T16:54:29.077Z,49.90
2017-08-22T16:56:56.757Z,49.20
2017-08-22T16:59:24.406Z,49.20
2017-08-22T17:01:52.081Z,49.50
2017-08-22T17:04:19.767Z,49.20
2017-08-22T17:06:47.457Z,49.40
2017-08-22T17:09:15.175Z,49.50
2017-08-22T17:11:42.867Z,49.30
2017-08-22T17:14:10.561Z,49.60
2017-08-22T17:16:38.249Z,49.80
2017-08-22T17:19:08.573Z,50.00
2017-08-22T17:21:40.802Z,49.80
2017-08-22T17:24:08.633Z,49.80
2017-08-22T17:26:36.294Z,49.80
2017-08-22T17:29:04.000Z,49.70
2017-08-22T17:31:31.639Z,50.00
2017-08-22T17:33:59.340Z,49.80
2017-08-22T17:36:27.000Z,50.00
2017-08-22T17:38:54.652Z,50.20
2017-08-22T17:41:22.355Z,49.70
2017-08-22T17:43:50.149Z,50.00
2017-08-22T17:46:17.826Z,49.90
2017-08-22T17:48:45.464Z,49.90
2017-08-22T17:51:13.160Z,50.20
2017-08-22T17:53:40.816Z,49.90
2017-08-22T17:56:09.244Z,50.10
2017-08-22T17:58:36.921Z,50.00
2017-08-22T18:01:04.571Z,50.00
2017-08-22T18:03:32.260Z,50.20
2017-08-22T18:05:59.991Z,50.10
2017-08-22T18:08:27.755Z,50.30
2017-08-22T18:10:55.449Z,50.10
2017-08-22T18:13:23.097Z,50.30
2017-08-22T18:15:50.841Z,50.20
2017-08-22T18:18:18.710Z,50.40
2017-08-22T18:20:46.397Z,50.20
2017-08-22T18:23:14.124Z,50.50
2017-08-22T18:25:41.767Z,50.30
2017-08-22T18:28:09.449Z,50.20
2017-08-22T18:30:37.245Z,50.20
2017-08-22T18:33:04.901Z,50.40
2017-08-22T18:35:32.569Z,50.30
2017-08-22T18:38:00.227Z,50.40
2017-08-22T18:40:27.910Z,50.50
2017-08-22T18:42:55.591Z,50.40
2017-08-22T18:45:23.256Z,50.50
2017-08-22T18:47:50.897Z,50.80
2017-08-22T18:50:18.597Z,50.80
2017-08-22T18:52:46.254Z,50.90
2017-08-22T18:55:13.926Z,51.20
2017-08-22T18:57:41.574Z,51.40
2017-08-22T19:00:09.267Z,51.30
2017-08-22T19:02:37.075Z,51.50
2017-08-22T19:05:04.710Z,51.40
2017-08-22T19:07:32.373Z,51.80
2017-08-22T19:10:00.012Z,51.70
2017-08-22T19:12:27.704Z,51.80
2017-08-22T19:14:55.381Z,51.90
2017-08-22T19:17:23.063Z,51.80
2017-08-22T19:19:50.706Z,52.10
2017-08-22T19:22:18.366Z,52.00
2017-08-22T19:24:46.052Z,52.20
2017-08-22T19:27:13.715Z,52.20
2017-08-22T19:29:41.410Z,52.30
2017-08-22T19:32:09.066Z,52.10
2017-08-22T19:34:36.707Z,52.30
2017-08-22T19:37:04.388Z,52.30
2017-08-22T19:39:32.024Z,52.50
2017-08-22T19:41:59.684Z,52.60
2017-08-22T19:44:27.718Z,52.70
2017-08-22T19:46:55.592Z,52.70
2017-08-22T19:49:23.365Z,52.80
2017-08-22T19:51:51.173Z,53.00
2017-08-22T19:54:18.973Z,53.10
2017-08-22T19:56:46.729Z,53.30
2017-08-22T19:59:14.522Z,53.40
2017-08-22T20:01:42.318Z,53.60
2017-08-22T20:04:10.308Z,53.40
2017-08-22T20:06:38.115Z,53.30
2017-08-22T20:09:05.995Z,53.50
2017-08-22T20:11:33.703Z,53.30
2017-08-22T20:14:01.410Z,53.40
2017-08-22T20:16:29.233Z,53.40
2017-08-22T20:18:57.055Z,53.30
2017-08-22T20:21:24.868Z,53.10
2017-08-22T20:23:52.750Z,53.20
2017-08-22T20:26:20.587Z,53.30
2017-08-22T20:28:48.465Z,53.10
2017-08-22T20:31:16.278Z,53.10
2017-08-22T20:33:44.081Z,53.10
2017-08-22T20:36:11.926Z,53.20
2017-08-22T20:38:39.754Z,54.00
2017-08-22T20:41:07.618Z,53.30
2017-08-22T20:43:35.387Z,53.20
2017-08-22T20:46:03.066Z,53.10
2017-08-22T20:48:30.766Z,53.20
2017-08-22T20:50:58.403Z,53.30
2017-08-22T20:53:26.092Z,53.30
2017-08-22T20:55:53.733Z,53.40
2017-08-22T20:58:21.417Z,53.40
2017-08-22T21:00:49.076Z,53.60
2017-08-22T21:03:16.805Z,53.50
2017-08-22T21:05:44.466Z,53.70
2017-08-22T21:08:12.145Z,53.70
2017-08-22T21:10:39.791Z,53.70
2017-08-22T21:13:07.468Z,53.80
2017-08-22T21:15:35.146Z,53.80
2017-08-22T21:18:02.821Z,54.00
2017-08-22T21:20:30.507Z,53.90
2017-08-22T21:22:58.142Z,53.70
2017-08-22T21:25:25.836Z,53.90
2017-08-22T21:27:53.497Z,53.90
2017-08-22T21:30:21.181Z,54.10
2017-08-22T21:32:48.835Z,54.10
2017-08-22T21:35:16.494Z,53.90
2017-08-22T21:37:44.191Z,54.00
2017-08-22T21:40:11.853Z,54.00
2017-08-22T21:42:39.543Z,54.10
2017-08-22T21:45:07.197Z,54.20
2017-08-22T21:47:34.960Z,54.30
2017-08-22T21:50:02.636Z,54.00
2017-08-22T21:52:30.316Z,54.10
2017-08-22T21:54:57.987Z,54.20
2017-08-22T21:57:25.643Z,54.30
2017-08-22T21:59:53.337Z,54.20
2017-08-22T22:02:21.002Z,54.30
2017-08-22T22:04:48.686Z,54.30
2017-08-22T22:07:16.367Z,54.50
2017-08-22T22:09:44.046Z,54.70
2017-08-22T22:12:11.678Z,54.80
2017-08-22T22:14:39.346Z,54.60
2017-08-22T22:17:07.008Z,54.70
2017-08-22T22:19:34.664Z,54.80
2017-08-22T22:22:02.350Z,54.80
2017-08-22T22:24:30.016Z,54.80
2017-08-22T22:26:57.687Z,54.90
2017-08-22T22:29:25.364Z,55.00
2017-08-22T22:31:53.054Z,55.10
2017-08-22T22:34:20.714Z,55.00
2017-08-22T22:36:48.362Z,55.00
2017-08-22T22:39:16.039Z,55.20
2017-08-22T22:41:43.691Z,55.30
2017-08-22T22:44:11.377Z,55.30
2017-08-22T22:46:39.082Z,55.20
2017-08-22T22:49:06.750Z,55.20
2017-08-22T22:51:34.468Z,55.30
2017-08-22T22:54:02.095Z,55.30
2017-08-22T22:56:29.736Z,55.30
2017-08-22T22:58:57.433Z,55.40
2017-08-22T23:01:25.098Z,55.60
2017-08-22T23:03:52.811Z,55.60
2017-08-22T23:06:20.453Z,55.40
2017-08-22T23:08:48.119Z,55.40
2017-08-22T23:11:15.796Z,55.60
2017-08-22T23:13:43.445Z,55.60
2017-08-22T23:16:11.146Z,55.60
2017-08-22T23:18:38.799Z,55.60
2017-08-22T23:21:06.474Z,55.40
2017-08-22T23:23:34.171Z,55.30
2017-08-22T23:26:01.819Z,56.10
2017-08-22T23:28:29.490Z,55.40
2017-08-22T23:30:57.143Z,55.30
2017-08-22T23:33:24.841Z,55.20
2017-08-22T23:35:52.488Z,55.40
2017-08-22T23:38:20.135Z,56.00
2017-08-22T23:40:47.832Z,55.50
2017-08-22T23:43:15.502Z,55.60
2017-08-22T23:45:43.208Z,55.60
2017-08-22T23:48:10.887Z,55.70
2017-08-22T23:50:38.558Z,55.80
2017-08-22T23:53:06.219Z,55.90
2017-08-22T23:55:33.860Z,56.00
2017-08-22T23:58:01.544Z,56.00
